createdAt,value
2017-07-14T00:02:18.532Z,101407.20
2017-07-14T00:04:51.149Z,101406.42
2017-07-14T00:07:23.305Z,101405.36
2017-07-14T00:09:55.738Z,101403.60
2017-07-14T00:12:28.146Z,101398.42
2017-07-14T00:15:00.439Z,101396.93
2017-07-14T00:17:32.962Z,101396.93
2017-07-14T00:20:05.506Z,101399.78
2017-07-14T00:22:38.084Z,101394.79
2017-07-14T00:25:10.400Z,101391.84
2017-07-14T00:27:42.877Z,101388.19
2017-07-14T00:30:15.263Z,101386.83
2017-07-14T00:32:47.978Z,101384.08
2017-07-14T00:35:20.110Z,101380.02
2017-07-14T00:37:52.663Z,101380.47
2017-07-14T00:40:25.041Z,101374.62
2017-07-14T00:42:57.430Z,101373.25
2017-07-14T00:45:29.797Z,101372.89
2017-07-14T00:48:02.376Z,101378.45
2017-07-14T00:50:34.734Z,101374.31
2017-07-14T00:53:07.044Z,101371.66
2017-07-14T00:55:39.452Z,101369.13
2017-07-14T00:58:11.678Z,101367.74
2017-07-14T01:00:44.118Z,101366.25
2017-07-14T01:03:16.520Z,101363.84
2017-07-14T01:05:48.870Z,101357.68
2017-07-14T01:08:21.475Z,101356.26
2017-07-14T01:10:53.823Z,101359.11
2017-07-14T01:13:26.393Z,101359.08
2017-07-14T01:15:58.804Z,101362.64
2017-07-14T01:18:31.234Z,101351.56
2017-07-14T01:21:03.547Z,101354.58
2017-07-14T01:23:35.983Z,101357.52
2017-07-14T01:26:08.246Z,101347.67
2017-07-14T01:28:40.661Z,101351.87
2017-07-14T01:31:13.124Z,101345.61
2017-07-14T01:33:45.540Z,101344.32
2017-07-14T01:36:17.909Z,101339.52
2017-07-14T01:38:50.233Z,101335.75
2017-07-14T01:41:22.703Z,101338.60
2017-07-14T01:43:55.300Z,101331.49
2017-07-14T01:46:27.436Z,101329.66
2017-07-14T01:48:59.839Z,101329.22
2017-07-14T01:51:32.139Z,101322.66
2017-07-14T01:54:04.518Z,101319.06
2017-07-14T01:56:36.669Z,101314.33
2017-07-14T01:59:09.098Z,101314.39
2017-07-14T02:01:41.442Z,101308.51
2017-07-14T02:04:13.922Z,101308.07
2017-07-14T02:06:46.330Z,101304.89
2017-07-14T02:09:19.036Z,101305.49
2017-07-14T02:11:51.577Z,101311.07
2017-07-14T02:14:24.105Z,101295.92
2017-07-14T02:16:56.486Z,101300.01
2017-07-14T02:19:28.891Z,101300.60
2017-07-14T02:22:01.221Z,101298.27
2017-07-14T02:24:33.689Z,101297.11
2017-07-14T02:27:06.041Z,101284.08
2017-07-14T02:29:38.445Z,101297.72
2017-07-14T02:32:10.824Z,101292.59
2017-07-14T02:34:43.187Z,101292.70
2017-07-14T02:37:15.616Z,101291.77
2017-07-14T02:39:48.032Z,101288.38
2017-07-14T02:42:20.421Z,101286.03
2017-07-14T02:44:52.822Z,101282.30
2017-07-14T02:47:25.228Z,101288.73
2017-07-14T02:49:57.425Z,101287.14
2017-07-14T02:52:29.838Z,101287.83
2017-07-14T02:55:02.265Z,101280.09
2017-07-14T02:57:34.633Z,101275.00
2017-07-14T03:00:07.015Z,101275.55
2017-07-14T03:02:39.289Z,101280.03
2017-07-14T03:05:11.660Z,101275.01
2017-07-14T03:07:44.201Z,101268.80
2017-07-14T03:10:17.073Z,101273.91
2017-07-14T03:12:49.217Z,101271.04
2017-07-14T03:15:21.869Z,101267.53
2017-07-14T03:17:54.273Z,101266.25
2017-07-14T03:20:26.621Z,101268.74
2017-07-14T03:22:59.017Z,101269.19
2017-07-14T03:25:31.336Z,101264.70
2017-07-14T03:28:03.706Z,101269.73
2017-07-14T03:30:36.166Z,101264.84
2017-07-14T03:33:08.577Z,101261.63
2017-07-14T03:35:41.200Z,101261.09
2017-07-14T03:38:13.550Z,101258.12
2017-07-14T03:40:46.411Z,101262.86
2017-07-14T03:43:18.549Z,101262.18
2017-07-14T03:45:50.708Z,101255.95
2017-07-14T03:48:23.065Z,101255.17
2017-07-14T03:50:55.522Z,101259.58
2017-07-14T03:53:27.861Z,101257.82
2017-07-14T03:56:00.318Z,101256.64
2017-07-14T03:58:32.611Z,101256.47
2017-07-14T04:01:05.105Z,101259.85
2017-07-14T04:03:37.697Z,101256.70
2017-07-14T04:06:09.908Z,101261.20
2017-07-14T04:08:42.218Z,101252.11
2017-07-14T04:11:14.643Z,101253.16
2017-07-14T04:13:46.846Z,101250.16
2017-07-14T04:16:19.299Z,101250.60
2017-07-14T04:18:51.737Z,101251.08
2017-07-14T04:21:24.121Z,101251.14
2017-07-14T04:23:56.913Z,101249.02
2017-07-14T04:26:29.053Z,101241.38
2017-07-14T04:29:01.408Z,101237.83
2017-07-14T04:31:33.920Z,101234.17
2017-07-14T04:34:06.270Z,101227.69
2017-07-14T04:36:38.783Z,101231.91
2017-07-14T04:39:11.209Z,101235.97
2017-07-14T04:41:43.664Z,101232.78
2017-07-14T04:44:16.158Z,101230.75
2017-07-14T04:46:48.485Z,101230.53
2017-07-14T04:49:20.849Z,101234.96
2017-07-14T04:51:53.305Z,101229.01
2017-07-14T04:54:26.028Z,101235.44
2017-07-14T04:56:58.060Z,101225.26
2017-07-14T04:59:30.389Z,101227.34
2017-07-14T05:02:02.759Z,101228.39
2017-07-14T05:04:34.944Z,101230.50
2017-07-14T05:07:07.404Z,101229.67
2017-07-14T05:09:39.730Z,101229.27
2017-07-14T05:12:12.097Z,101219.12
2017-07-14T05:14:44.359Z,101217.55
2017-07-14T05:17:16.977Z,101226.82
2017-07-14T05:19:49.062Z,101213.28
2017-07-14T05:22:21.408Z,101211.16
2017-07-14T05:24:54.185Z,101211.48
2017-07-14T05:27:26.125Z,101205.31
2017-07-14T05:29:58.417Z,101202.81
2017-07-14T05:32:31.119Z,101204.14
2017-07-14T05:35:03.186Z,101202.75
2017-07-14T05:37:35.438Z,101203.19
2017-07-14T05:40:07.790Z,101210.22
2017-07-14T05:42:40.075Z,101199.59
2017-07-14T05:45:13.058Z,101197.72
2017-07-14T05:47:45.204Z,101190.56
2017-07-14T05:50:17.573Z,101186.89
2017-07-14T05:52:49.964Z,101189.00
2017-07-14T05:55:22.297Z,101189.98
2017-07-14T05:57:54.667Z,101187.97
2017-07-14T06:00:27.156Z,101186.73
2017-07-14T06:02:59.734Z,101180.19
2017-07-14T06:05:32.077Z,101180.91
2017-07-14T06:08:04.507Z,101180.23
2017-07-14T06:10:36.735Z,101172.54
2017-07-14T06:13:09.242Z,101164.27
2017-07-14T06:15:41.603Z,101169.72
2017-07-14T06:18:13.951Z,101165.02
2017-07-14T06:20:46.345Z,101158.15
2017-07-14T06:23:18.760Z,101161.33
2017-07-14T06:25:51.099Z,101161.59
2017-07-14T06:28:23.426Z,101163.83
2017-07-14T06:30:55.760Z,101149.05
2017-07-14T06:33:28.149Z,101146.81
2017-07-14T06:36:00.411Z,101149.13
2017-07-14T06:38:32.760Z,101147.20
2017-07-14T06:41:05.093Z,101151.11
2017-07-14T06:43:37.424Z,101135.03
2017-07-14T06:46:09.669Z,101140.88
2017-07-14T06:48:41.901Z,101133.44
2017-07-14T06:51:14.210Z,101133.07
2017-07-14T06:53:47.007Z,101128.59
2017-07-14T06:56:19.141Z,101123.02
2017-07-14T06:58:51.359Z,101132.33
2017-07-14T07:01:23.700Z,101127.92
2017-07-14T07:03:55.913Z,101128.13
2017-07-14T07:06:28.265Z,101128.21
2017-07-14T07:09:00.750Z,101122.77
2017-07-14T07:11:32.701Z,101123.20
2017-07-14T07:14:05.041Z,101123.55
2017-07-14T07:16:37.248Z,101122.39
2017-07-14T07:19:09.658Z,101131.55
2017-07-14T07:21:41.906Z,101132.31
2017-07-14T07:24:14.484Z,101129.55
2017-07-14T07:26:46.810Z,101127.41
2017-07-14T07:29:19.202Z,101131.92
2017-07-14T07:31:51.429Z,101129.50
2017-07-14T07:34:23.758Z,101133.23
2017-07-14T07:36:56.004Z,101134.51
2017-07-14T07:39:28.386Z,101128.29
2017-07-14T07:42:00.727Z,101129.58
2017-07-14T07:44:32.922Z,101123.98
2017-07-14T07:47:11.486Z,101129.27
2017-07-14T07:49:43.581Z,101125.55
2017-07-14T07:52:15.834Z,101126.34
2017-07-14T07:54:48.171Z,101125.74
2017-07-14T07:57:20.387Z,101128.51
2017-07-14T07:59:52.686Z,101126.50
2017-07-14T08:02:25.053Z,101127.39
2017-07-14T08:04:57.302Z,101122.50
2017-07-14T08:07:29.201Z,101119.17
2017-07-14T08:10:01.524Z,101118.91
2017-07-14T08:12:33.801Z,101119.88
2017-07-14T08:15:06.070Z,101118.52
2017-07-14T08:17:38.234Z,101115.73
2017-07-14T08:20:10.541Z,101112.88
2017-07-14T08:22:42.753Z,101116.41
2017-07-14T08:25:15.289Z,101117.59
2017-07-14T08:27:47.402Z,101116.05
2017-07-14T08:30:19.681Z,101113.84
2017-07-14T08:32:51.941Z,101109.17
2017-07-14T08:35:24.235Z,101107.67
2017-07-14T08:37:56.474Z,101112.16
2017-07-14T08:40:29.518Z,101113.39
2017-07-14T08:43:02.088Z,101108.34
2017-07-14T08:45:34.562Z,101108.97
2017-07-14T08:48:06.793Z,101099.20
2017-07-14T08:50:39.087Z,101098.08
2017-07-14T08:53:11.285Z,101101.66
2017-07-14T08:55:43.825Z,101097.47
2017-07-14T08:58:15.901Z,101091.72
2017-07-14T09:00:48.263Z,101090.06
2017-07-14T09:03:21.294Z,101093.87
2017-07-14T09:05:53.934Z,101087.98
2017-07-14T09:08:27.071Z,101086.52
2017-07-14T09:11:00.021Z,101088.48
2017-07-14T09:13:31.977Z,101089.53
2017-07-14T09:16:04.281Z,101092.55
2017-07-14T09:18:36.554Z,101075.95
2017-07-14T09:21:08.797Z,101068.13
2017-07-14T09:23:41.059Z,101071.11
2017-07-14T09:26:13.386Z,101077.37
2017-07-14T09:28:45.696Z,101078.31
2017-07-14T09:31:18.081Z,101067.60
2017-07-14T09:33:50.460Z,101070.01
2017-07-14T09:36:22.748Z,101072.97
2017-07-14T09:38:54.958Z,101060.87
2017-07-14T09:41:27.274Z,101066.47
2017-07-14T09:43:59.545Z,101069.22
2017-07-14T09:46:31.781Z,101062.70
2017-07-14T09:49:04.020Z,101064.42
2017-07-14T09:51:36.265Z,101069.36
2017-07-14T09:54:08.498Z,101071.37
2017-07-14T09:56:40.850Z,101066.85
2017-07-14T09:59:13.119Z,101063.91
2017-07-14T10:01:45.489Z,101066.06
2017-07-14T10:04:17.682Z,101063.08
2017-07-14T10:06:50.016Z,101058.86
2017-07-14T10:09:22.323Z,101064.30
2017-07-14T10:11:54.598Z,101064.53
2017-07-14T10:14:26.857Z,101064.36
2017-07-14T10:16:59.154Z,101062.11
2017-07-14T10:19:31.490Z,101065.92
2017-07-14T10:22:03.766Z,101061.72
2017-07-14T10:24:36.089Z,101057.68
2017-07-14T10:27:08.462Z,101062.47
2017-07-14T10:29:40.728Z,101054.58
2017-07-14T10:32:13.079Z,101056.22
2017-07-14T10:34:45.579Z,101049.17
2017-07-14T10:37:17.764Z,101050.23
2017-07-14T10:39:49.926Z,101045.28
2017-07-14T10:42:22.262Z,101049.06
2017-07-14T10:44:54.595Z,101048.18
2017-07-14T10:47:26.824Z,101043.14
2017-07-14T10:49:59.822Z,101045.70
2017-07-14T10:52:31.814Z,101043.82
2017-07-14T10:55:04.009Z,101040.66
2017-07-14T10:57:36.286Z,101045.24
2017-07-14T11:00:08.485Z,101047.34
2017-07-14T11:02:40.705Z,101038.74
2017-07-14T11:05:13.030Z,101034.59
2017-07-14T11:07:45.454Z,101034.16
2017-07-14T11:10:17.970Z,101027.00
2017-07-14T11:12:50.330Z,101025.27
2017-07-14T11:15:22.569Z,101020.45
2017-07-14T11:17:55.201Z,101023.75
2017-07-14T11:20:27.298Z,101025.55
2017-07-14T11:22:59.561Z,101021.20
2017-07-14T11:25:31.723Z,101019.56
2017-07-14T11:28:04.081Z,101026.09
2017-07-14T11:30:36.339Z,101031.95
2017-07-14T11:33:08.637Z,101021.12
2017-07-14T11:35:40.981Z,101021.69
2017-07-14T11:38:13.322Z,101021.69
2017-07-14T11:40:45.614Z,101018.33
2017-07-14T11:43:17.923Z,101014.44
2017-07-14T11:45:50.506Z,101017.83
2017-07-14T11:48:22.497Z,101012.86
2017-07-14T11:50:54.790Z,101012.34
2017-07-14T11:53:27.168Z,101004.48
2017-07-14T11:55:59.645Z,101002.23
2017-07-14T11:58:32.073Z,100995.38
2017-07-14T12:01:04.312Z,100994.63
2017-07-14T12:03:36.583Z,100993.02
2017-07-14T12:06:08.816Z,100987.73
2017-07-14T12:08:41.140Z,100980.57
2017-07-14T12:11:13.405Z,100990.00
2017-07-14T12:13:45.737Z,100989.48
2017-07-14T12:16:17.936Z,100982.09
2017-07-14T12:18:50.231Z,100977.23
2017-07-14T12:21:22.485Z,100982.70
2017-07-14T12:23:54.802Z,100986.31
2017-07-14T12:26:27.046Z,100982.31
2017-07-14T12:28:59.291Z,100990.14
2017-07-14T12:31:31.545Z,100980.56
2017-07-14T12:34:03.798Z,100987.05
2017-07-14T12:36:36.131Z,100990.83
2017-07-14T12:39:08.582Z,100995.30
2017-07-14T12:41:40.789Z,100988.28
2017-07-14T12:44:12.994Z,100990.01
2017-07-14T12:46:45.278Z,100993.70
2017-07-14T12:49:17.545Z,100992.25
2017-07-14T12:51:49.694Z,100993.26
2017-07-14T12:54:22.282Z,101000.05
2017-07-14T12:56:54.343Z,100999.27
2017-07-14T12:59:27.138Z,101003.82
2017-07-14T13:01:59.906Z,101005.46
2017-07-14T13:04:32.213Z,101008.28
2017-07-14T13:07:04.405Z,101011.98
2017-07-14T13:09:36.749Z,101006.06
2017-07-14T13:12:09.009Z,101006.95
2017-07-14T13:14:41.258Z,101006.49
2017-07-14T13:17:13.556Z,101008.67
2017-07-14T13:19:45.761Z,101008.50
2017-07-14T13:22:18.106Z,101007.22
2017-07-14T13:24:50.233Z,101004.47
2017-07-14T13:27:22.459Z,101003.72
2017-07-14T13:29:54.709Z,101001.63
2017-07-14T13:32:27.109Z,101001.27
2017-07-14T13:34:59.314Z,100999.80
2017-07-14T13:37:31.544Z,101000.44
2017-07-14T13:40:03.805Z,100997.31
2017-07-14T13:42:36.179Z,101003.08
2017-07-14T13:45:08.325Z,101006.09
2017-07-14T13:47:40.755Z,101002.70
2017-07-14T13:50:13.161Z,101002.87
2017-07-14T13:52:45.567Z,101004.23
2017-07-14T13:55:17.836Z,101009.24
2017-07-14T13:57:50.158Z,101005.64
2017-07-14T14:00:22.591Z,101018.20
2017-07-14T14:02:54.621Z,101010.21
2017-07-14T14:05:27.005Z,101010.91
2017-07-14T14:07:59.222Z,101010.46
2017-07-14T14:10:31.506Z,101016.20
2017-07-14T14:13:03.780Z,101015.20
2017-07-14T14:15:36.053Z,101008.38
2017-07-14T14:18:08.374Z,101013.53
2017-07-14T14:20:40.737Z,101003.66
2017-07-14T14:23:13.012Z,101011.43
2017-07-14T14:25:45.387Z,101014.38
2017-07-14T14:28:17.601Z,101016.69
2017-07-14T14:30:49.955Z,101012.44
2017-07-14T14:33:22.297Z,101008.17
2017-07-14T14:35:54.622Z,101007.48
2017-07-14T14:38:26.981Z,101009.45
2017-07-14T14:40:59.318Z,101004.10
2017-07-14T14:43:31.689Z,101005.37
2017-07-14T14:46:04.146Z,101007.45
2017-07-14T14:48:36.517Z,101002.03
2017-07-14T14:51:08.950Z,101004.81
2017-07-14T14:53:41.212Z,101005.25
2017-07-14T14:56:13.656Z,101002.78
2017-07-14T14:58:45.845Z,101008.17
2017-07-14T15:01:18.346Z,101004.02
2017-07-14T15:03:50.608Z,101006.81
2017-07-14T15:06:22.873Z,101000.55
2017-07-14T15:08:55.030Z,101003.48
2017-07-14T15:11:27.302Z,101006.11
2017-07-14T15:13:59.666Z,101013.83
2017-07-14T15:16:32.301Z,101016.14
2017-07-14T15:19:04.286Z,101021.55
2017-07-14T15:21:36.652Z,101019.91
2017-07-14T15:24:08.873Z,101023.72
2017-07-14T15:26:41.211Z,101034.98
2017-07-14T15:29:13.517Z,101039.68
2017-07-14T15:31:45.809Z,101037.77
2017-07-14T15:34:18.186Z,101060.51
2017-07-14T15:36:50.492Z,101077.78
2017-07-14T15:39:22.821Z,101098.41
2017-07-14T15:41:55.157Z,101109.62
2017-07-14T15:44:27.512Z,101107.97
2017-07-14T15:46:59.993Z,101112.42
2017-07-14T15:49:32.374Z,101102.65
2017-07-14T15:52:04.785Z,101096.28
2017-07-14T15:54:37.085Z,101102.60
2017-07-14T15:57:09.749Z,101095.34
2017-07-14T15:59:42.237Z,101097.35
2017-07-14T16:02:14.640Z,101095.63
2017-07-14T16:04:46.998Z,101086.11
2017-07-14T16:07:19.430Z,101088.63
2017-07-14T16:09:51.845Z,101081.58
2017-07-14T16:12:24.273Z,101085.56
2017-07-14T16:14:56.793Z,101077.02
2017-07-14T16:17:29.409Z,101079.40
2017-07-14T16:20:01.882Z,101079.47
2017-07-14T16:22:34.068Z,101074.67
2017-07-14T16:25:06.353Z,101072.82
2017-07-14T16:27:38.733Z,101066.12
2017-07-14T16:30:11.073Z,101065.59
2017-07-14T16:32:43.542Z,101063.61
2017-07-14T16:35:16.117Z,101066.16
2017-07-14T16:37:48.573Z,101067.57
2017-07-14T16:40:20.949Z,101057.97
2017-07-14T16:42:53.350Z,101055.73
2017-07-14T16:45:25.822Z,101060.56
2017-07-14T16:47:58.364Z,101056.25
2017-07-14T16:50:30.779Z,101056.25
2017-07-14T16:53:03.256Z,101054.42
2017-07-14T16:55:35.552Z,101052.35
2017-07-14T16:58:08.106Z,101058.86
2017-07-14T17:00:40.545Z,101058.58
2017-07-14T17:03:13.001Z,101059.52
2017-07-14T17:05:45.322Z,101060.80
2017-07-14T17:08:17.956Z,101059.58
2017-07-14T17:10:50.137Z,101058.30
2017-07-14T17:13:22.504Z,101057.16
2017-07-14T17:15:55.076Z,101052.60
2017-07-14T17:18:27.512Z,101051.05
2017-07-14T17:20:59.785Z,101054.68
2017-07-14T17:23:32.321Z,101053.20
2017-07-14T17:26:04.701Z,101048.55
2017-07-14T17:28:38.114Z,101044.02
2017-07-14T17:31:10.601Z,101050.76
2017-07-14T17:33:42.889Z,101046.23
2017-07-14T17:36:15.446Z,101042.79
2017-07-14T17:38:47.941Z,101037.11
2017-07-14T17:41:20.437Z,101040.84
2017-07-14T17:43:52.874Z,101040.95
2017-07-14T17:46:25.365Z,101042.95
2017-07-14T17:48:57.813Z,101037.20
2017-07-14T17:51:30.109Z,101033.22
2017-07-14T17:54:02.463Z,101029.55
2017-07-14T17:56:34.835Z,101030.28
2017-07-14T17:59:07.278Z,101037.16
2017-07-14T18:01:39.581Z,101039.57
2017-07-14T18:04:11.881Z,101040.80
2017-07-14T18:06:44.237Z,101046.72
2017-07-14T18:09:16.569Z,101048.13
2017-07-14T18:11:49.034Z,101056.19
2017-07-14T18:14:21.456Z,101050.58
2017-07-14T18:16:53.732Z,101057.22
2017-07-14T18:19:26.310Z,101057.81
2017-07-14T18:21:58.576Z,101057.75
2017-07-14T18:24:31.054Z,101052.16
2017-07-14T18:27:03.405Z,101059.41
2017-07-14T18:29:35.895Z,101068.13
2017-07-14T18:32:08.435Z,101074.75
2017-07-14T18:34:41.009Z,101074.73
2017-07-14T18:37:13.437Z,101079.02
2017-07-14T18:39:45.753Z,101074.56
2017-07-14T18:42:18.231Z,101089.45
2017-07-14T18:44:51.775Z,101085.52
2017-07-14T18:47:24.245Z,101086.20
2017-07-14T18:49:56.766Z,101086.25
2017-07-14T18:52:29.097Z,101095.52
2017-07-14T18:55:01.538Z,101092.38
2017-07-14T18:57:33.841Z,101094.70
2017-07-14T19:00:06.591Z,101088.91
2017-07-14T19:02:38.621Z,101095.76
2017-07-14T19:05:11.206Z,101098.57
2017-07-14T19:07:43.501Z,101095.80
2017-07-14T19:10:15.849Z,101104.20
2017-07-14T19:12:48.297Z,101099.64
2017-07-14T19:15:20.617Z,101103.17
2017-07-14T19:17:52.919Z,101104.02
2017-07-14T19:20:25.255Z,101101.81
2017-07-14T19:22:57.577Z,101106.17
2017-07-14T19:25:29.950Z,101101.87
2017-07-14T19:28:02.486Z,101106.75
2017-07-14T19:30:34.921Z,101109.67
2017-07-14T19:33:07.337Z,101107.59
2017-07-14T19:35:39.687Z,101112.47
2017-07-14T19:38:11.965Z,101115.75
2017-07-14T19:40:44.289Z,101117.98
2017-07-14T19:43:16.759Z,101115.86
2017-07-14T19:45:49.248Z,101123.09
2017-07-14T19:48:21.617Z,101123.57
2017-07-14T19:50:54.025Z,101124.45
2017-07-14T19:53:26.277Z,101132.12
2017-07-14T19:55:58.689Z,101137.18
2017-07-14T19:58:31.050Z,101134.62
2017-07-14T20:01:03.481Z,101132.82
2017-07-14T20:03:35.853Z,101135.82
2017-07-14T20:06:08.318Z,101133.62
2017-07-14T20:08:40.602Z,101138.92
2017-07-14T20:11:12.991Z,101137.05
2017-07-14T20:13:45.339Z,101139.26
2017-07-14T20:16:17.686Z,101144.63
2017-07-14T20:18:50.180Z,101150.15
2017-07-14T20:21:22.790Z,101148.91
2017-07-14T20:23:55.224Z,101155.84
2017-07-14T20:26:27.617Z,101153.44
2017-07-14T20:29:00.132Z,101153.78
2017-07-14T20:31:32.560Z,101152.43
2017-07-14T20:34:04.765Z,101169.74
2017-07-14T20:36:37.028Z,101164.94
2017-07-14T20:39:09.303Z,101165.34
2017-07-14T20:41:41.664Z,101166.00
2017-07-14T20:44:14.969Z,101170.02
2017-07-14T20:46:47.440Z,101178.83
2017-07-14T20:49:19.928Z,101180.31
2017-07-14T20:51:52.767Z,101193.26
2017-07-14T20:54:24.653Z,101194.14
2017-07-14T20:56:56.937Z,101200.56
2017-07-14T20:59:29.422Z,101206.87
2017-07-14T21:02:01.749Z,101209.00
2017-07-14T21:04:34.159Z,101209.52
2017-07-14T21:07:06.674Z,101205.96
2017-07-14T21:09:38.993Z,101213.95
2017-07-14T21:12:11.417Z,101211.80
2017-07-14T21:14:43.612Z,101220.03
2017-07-14T21:17:16.113Z,101220.25
2017-07-14T21:19:48.454Z,101225.09
2017-07-14T21:22:20.905Z,101229.02
2017-07-14T21:24:53.117Z,101232.06
2017-07-14T21:27:25.791Z,101235.64
2017-07-14T21:29:57.969Z,101234.72
2017-07-14T21:32:30.307Z,101242.66
2017-07-14T21:35:02.611Z,101241.59
2017-07-14T21:37:34.932Z,101243.71
2017-07-14T21:40:07.262Z,101240.94
2017-07-14T21:42:39.649Z,101238.38
2017-07-14T21:45:11.941Z,101239.30
2017-07-14T21:47:44.438Z,101244.00
2017-07-14T21:50:16.989Z,101241.98
2017-07-14T21:52:49.365Z,101250.14
2017-07-14T21:55:21.637Z,101249.75
2017-07-14T21:57:54.206Z,101243.73
2017-07-14T22:00:26.694Z,101244.42
2017-07-14T22:02:59.160Z,101247.97
2017-07-14T22:05:31.553Z,101250.14
2017-07-14T22:08:04.032Z,101248.48
2017-07-14T22:10:36.561Z,101245.86
2017-07-14T22:13:08.744Z,101250.14
2017-07-14T22:15:41.202Z,101258.41
2017-07-14T22:18:13.535Z,101249.23
2017-07-14T22:20:46.017Z,101250.66
2017-07-14T22:23:18.343Z,101249.62
2017-07-14T22:25:50.624Z,101254.97
2017-07-14T22:28:23.052Z,101254.98
2017-07-14T22:30:55.458Z,101257.52
2017-07-14T22:33:28.050Z,101262.66
2017-07-14T22:36:00.421Z,101265.86
2017-07-14T22:38:32.796Z,101265.36
2017-07-14T22:41:05.207Z,101255.51
2017-07-14T22:43:37.620Z,101267.32
2017-07-14T22:46:10.078Z,101263.98
2017-07-14T22:48:42.585Z,101265.73
2017-07-14T22:51:14.862Z,101262.94
2017-07-14T22:53:47.268Z,101266.92
2017-07-14T22:56:19.577Z,101269.05
2017-07-14T22:58:52.001Z,101272.95
2017-07-14T23:01:24.421Z,101275.81
2017-07-14T23:03:58.377Z,101273.99
2017-07-14T23:06:30.405Z,101275.81
2017-07-14T23:09:02.919Z,101275.14
2017-07-14T23:11:35.329Z,101269.76
2017-07-14T23:14:07.750Z,101282.84
2017-07-14T23:16:40.118Z,101284.02
2017-07-14T23:19:12.489Z,101282.48
2017-07-14T23:21:44.849Z,101281.67
2017-07-14T23:24:17.329Z,101278.97
2017-07-14T23:26:49.753Z,101278.67
2017-07-14T23:29:22.158Z,101287.09
2017-07-14T23:31:54.577Z,101272.14
2017-07-14T23:34:26.990Z,101276.31
2017-07-14T23:36:59.450Z,101279.09
2017-07-14T23:39:31.914Z,101282.52
2017-07-14T23:42:04.374Z,101288.64
2017-07-14T23:44:36.916Z,101283.54
2017-07-14T23:47:09.239Z,101290.17
2017-07-14T23:49:41.533Z,101286.92
2017-07-14T23:52:13.946Z,101294.80
2017-07-14T23:54:46.377Z,101281.34
2017-07-14T23:57:18.988Z,101281.06
2017-07-14T23:59:51.222Z,101285.87
